sensor_id;sensor_type;location;lat;lon;timestamp;temperature;humidity
85176;SHT31;75548;42.444;27.488;2024-03-08T00:02:10;7.18;80.10
85176;SHT31;75548;42.444;27.488;2024-03-08T00:05:36;7.24;79.55
85176;SHT31;75548;42.444;27.488;2024-03-08T00:09:01;7.10;79.98
85176;SHT31;75548;42.444;27.488;2024-03-08T00:12:26;7.10;81.12
85176;SHT31;75548;42.444;27.488;2024-03-08T00:15:52;7.10;79.18
85176;SHT31;75548;42.444;27.488;2024-03-08T00:19:17;7.08;80.90
85176;SHT31;75548;42.444;27.488;2024-03-08T00:22:43;7.07;80.62
85176;SHT31;75548;42.444;27.488;2024-03-08T00:26:08;7.16;79.39
85176;SHT31;75548;42.444;27.488;2024-03-08T00:29:33;7.20;81.52
85176;SHT31;75548;42.444;27.488;2024-03-08T00:32:59;7.18;81.63
85176;SHT31;75548;42.444;27.488;2024-03-08T00:36:24;7.18;82.07
85176;SHT31;75548;42.444;27.488;2024-03-08T00:39:50;7.21;82.40
85176;SHT31;75548;42.444;27.488;2024-03-08T00:43:15;7.20;82.21
85176;SHT31;75548;42.444;27.488;2024-03-08T00:46:40;7.17;84.61
85176;SHT31;75548;42.444;27.488;2024-03-08T00:50:06;7.16;85.21
85176;SHT31;75548;42.444;27.488;2024-03-08T00:53:31;7.10;85.29
85176;SHT31;75548;42.444;27.488;2024-03-08T00:56:56;7.06;85.65
85176;SHT31;75548;42.444;27.488;2024-03-08T01:00:25;7.04;85.95
85176;SHT31;75548;42.444;27.488;2024-03-08T01:03:50;7.03;85.90
85176;SHT31;75548;42.444;27.488;2024-03-08T01:07:15;7.11;85.55
85176;SHT31;75548;42.444;27.488;2024-03-08T01:10:41;7.01;85.79
85176;SHT31;75548;42.444;27.488;2024-03-08T01:14:06;6.97;85.24
85176;SHT31;75548;42.444;27.488;2024-03-08T01:17:32;6.96;85.60
85176;SHT31;75548;42.444;27.488;2024-03-08T01:20:57;6.90;84.79
85176;SHT31;75548;42.444;27.488;2024-03-08T01:24:23;6.89;84.72
85176;SHT31;75548;42.444;27.488;2024-03-08T01:27:48;6.87;84.42
85176;SHT31;75548;42.444;27.488;2024-03-08T01:31:13;6.90;84.38
85176;SHT31;75548;42.444;27.488;2024-03-08T01:34:39;6.92;84.22
85176;SHT31;75548;42.444;27.488;2024-03-08T01:38:04;6.86;83.97
85176;SHT31;75548;42.444;27.488;2024-03-08T01:41:30;6.90;84.68
85176;SHT31;75548;42.444;27.488;2024-03-08T01:44:55;6.86;84.55
85176;SHT31;75548;42.444;27.488;2024-03-08T01:48:20;6.87;84.41
85176;SHT31;75548;42.444;27.488;2024-03-08T01:51:46;6.86;84.18
85176;SHT31;75548;42.444;27.488;2024-03-08T01:55:11;6.87;84.57
85176;SHT31;75548;42.444;27.488;2024-03-08T01:58:36;6.85;84.52
85176;SHT31;75548;42.444;27.488;2024-03-08T02:02:02;6.83;85.22
85176;SHT31;75548;42.444;27.488;2024-03-08T02:05:27;6.86;84.49
85176;SHT31;75548;42.444;27.488;2024-03-08T02:08:53;6.86;84.75
85176;SHT31;75548;42.444;27.488;2024-03-08T02:12:18;6.85;84.84
85176;SHT31;75548;42.444;27.488;2024-03-08T02:15:49;6.83;84.84
85176;SHT31;75548;42.444;27.488;2024-03-08T02:19:09;6.83;85.20
85176;SHT31;75548;42.444;27.488;2024-03-08T02:22:34;6.79;84.55
85176;SHT31;75548;42.444;27.488;2024-03-08T02:26:00;6.79;84.91
85176;SHT31;75548;42.444;27.488;2024-03-08T02:29:25;6.77;83.94
85176;SHT31;75548;42.444;27.488;2024-03-08T02:32:50;6.77;84.09
85176;SHT31;75548;42.444;27.488;2024-03-08T02:36:16;6.76;84.70
85176;SHT31;75548;42.444;27.488;2024-03-08T02:39:41;6.79;84.42
85176;SHT31;75548;42.444;27.488;2024-03-08T02:43:03;6.73;84.72
85176;SHT31;75548;42.444;27.488;2024-03-08T02:45:30;6.73;85.32
85176;SHT31;75548;42.444;27.488;2024-03-08T02:47:56;6.75;85.79
85176;SHT31;75548;42.444;27.488;2024-03-08T02:50:22;6.72;85.80
85176;SHT31;75548;42.444;27.488;2024-03-08T02:52:48;6.73;85.84
85176;SHT31;75548;42.444;27.488;2024-03-08T02:55:14;6.76;86.27
85176;SHT31;75548;42.444;27.488;2024-03-08T02:57:43;6.76;86.03
85176;SHT31;75548;42.444;27.488;2024-03-08T03:00:13;6.73;86.12
85176;SHT31;75548;42.444;27.488;2024-03-08T03:02:39;6.72;86.95
85176;SHT31;75548;42.444;27.488;2024-03-08T03:05:05;6.71;87.12
85176;SHT31;75548;42.444;27.488;2024-03-08T03:07:34;6.68;87.15
85176;SHT31;75548;42.444;27.488;2024-03-08T03:10:00;6.65;87.23
85176;SHT31;75548;42.444;27.488;2024-03-08T03:12:30;6.64;87.19
85176;SHT31;75548;42.444;27.488;2024-03-08T03:14:56;6.69;88.05
85176;SHT31;75548;42.444;27.488;2024-03-08T03:17:23;6.68;88.11
85176;SHT31;75548;42.444;27.488;2024-03-08T03:19:50;6.75;87.99
85176;SHT31;75548;42.444;27.488;2024-03-08T03:22:17;6.72;88.13
85176;SHT31;75548;42.444;27.488;2024-03-08T03:24:47;6.72;88.35
85176;SHT31;75548;42.444;27.488;2024-03-08T03:27:15;6.76;88.05
85176;SHT31;75548;42.444;27.488;2024-03-08T03:29:42;6.77;88.64
85176;SHT31;75548;42.444;27.488;2024-03-08T03:32:11;6.77;88.94
85176;SHT31;75548;42.444;27.488;2024-03-08T03:34:38;6.75;89.07
85176;SHT31;75548;42.444;27.488;2024-03-08T03:37:04;6.76;89.76
85176;SHT31;75548;42.444;27.488;2024-03-08T03:39:30;6.79;89.95
85176;SHT31;75548;42.444;27.488;2024-03-08T03:42:02;6.76;89.92
85176;SHT31;75548;42.444;27.488;2024-03-08T03:44:28;6.73;89.78
85176;SHT31;75548;42.444;27.488;2024-03-08T03:46:54;6.77;89.72
85176;SHT31;75548;42.444;27.488;2024-03-08T03:49:20;6.73;90.12
85176;SHT31;75548;42.444;27.488;2024-03-08T03:51:46;6.75;89.97
85176;SHT31;75548;42.444;27.488;2024-03-08T03:54:12;6.66;90.39
85176;SHT31;75548;42.444;27.488;2024-03-08T03:56:38;6.65;90.30
85176;SHT31;75548;42.444;27.488;2024-03-08T03:59:05;6.65;90.57
85176;SHT31;75548;42.444;27.488;2024-03-08T04:01:32;6.64;90.41
85176;SHT31;75548;42.444;27.488;2024-03-08T04:03:58;6.64;90.88
85176;SHT31;75548;42.444;27.488;2024-03-08T04:06:44;6.59;91.47
85176;SHT31;75548;42.444;27.488;2024-03-08T04:10:10;6.71;91.87
85176;SHT31;75548;42.444;27.488;2024-03-08T04:13:35;6.72;91.73
85176;SHT31;75548;42.444;27.488;2024-03-08T04:17:00;6.52;91.87
85176;SHT31;75548;42.444;27.488;2024-03-08T04:20:06;6.44;92.33
85176;SHT31;75548;42.444;27.488;2024-03-08T04:22:38;6.41;92.74
85176;SHT31;75548;42.444;27.488;2024-03-08T04:25:05;6.39;93.24
85176;SHT31;75548;42.444;27.488;2024-03-08T04:27:34;6.37;93.38
85176;SHT31;75548;42.444;27.488;2024-03-08T04:30:00;6.35;93.86
85176;SHT31;75548;42.444;27.488;2024-03-08T04:32:26;6.34;94.01
85176;SHT31;75548;42.444;27.488;2024-03-08T04:34:53;6.31;93.94
85176;SHT31;75548;42.444;27.488;2024-03-08T04:37:19;6.37;94.05
85176;SHT31;75548;42.444;27.488;2024-03-08T04:39:47;6.41;94.24
85176;SHT31;75548;42.444;27.488;2024-03-08T04:42:13;6.42;94.29
85176;SHT31;75548;42.444;27.488;2024-03-08T04:44:59;6.44;93.96
85176;SHT31;75548;42.444;27.488;2024-03-08T04:48:25;6.45;94.37
85176;SHT31;75548;42.444;27.488;2024-03-08T04:51:53;6.45;93.24
85176;SHT31;75548;42.444;27.488;2024-03-08T04:55:18;6.53;93.35
85176;SHT31;75548;42.444;27.488;2024-03-08T04:58:43;6.53;93.73
85176;SHT31;75548;42.444;27.488;2024-03-08T05:02:09;6.45;92.45
85176;SHT31;75548;42.444;27.488;2024-03-08T05:05:34;6.46;92.30
85176;SHT31;75548;42.444;27.488;2024-03-08T05:09:00;6.48;91.42
85176;SHT31;75548;42.444;27.488;2024-03-08T05:12:25;6.49;90.54
85176;SHT31;75548;42.444;27.488;2024-03-08T05:15:11;6.52;90.96
85176;SHT31;75548;42.444;27.488;2024-03-08T05:18:36;6.53;91.01
85176;SHT31;75548;42.444;27.488;2024-03-08T05:22:02;6.55;89.91
85176;SHT31;75548;42.444;27.488;2024-03-08T05:25:27;6.56;90.70
85176;SHT31;75548;42.444;27.488;2024-03-08T05:28:52;6.58;90.00
85176;SHT31;75548;42.444;27.488;2024-03-08T05:32:18;6.55;89.65
85176;SHT31;75548;42.444;27.488;2024-03-08T05:35:43;6.50;89.94
85176;SHT31;75548;42.444;27.488;2024-03-08T05:39:09;6.49;91.36
85176;SHT31;75548;42.444;27.488;2024-03-08T05:42:34;6.38;90.96
85176;SHT31;75548;42.444;27.488;2024-03-08T05:45:39;6.39;90.78
85176;SHT31;75548;42.444;27.488;2024-03-08T05:48:06;6.41;90.39
85176;SHT31;75548;42.444;27.488;2024-03-08T05:50:33;6.35;89.85
85176;SHT31;75548;42.444;27.488;2024-03-08T05:52:59;6.28;89.75
85176;SHT31;75548;42.444;27.488;2024-03-08T05:55:24;6.25;89.78
85176;SHT31;75548;42.444;27.488;2024-03-08T05:57:50;6.27;89.95
85176;SHT31;75548;42.444;27.488;2024-03-08T06:00:16;6.27;89.17
85176;SHT31;75548;42.444;27.488;2024-03-08T06:02:42;6.27;88.97
85176;SHT31;75548;42.444;27.488;2024-03-08T06:05:09;6.28;89.12
85176;SHT31;75548;42.444;27.488;2024-03-08T06:07:36;6.31;89.41
85176;SHT31;75548;42.444;27.488;2024-03-08T06:10:02;6.32;89.08
85176;SHT31;75548;42.444;27.488;2024-03-08T06:12:28;6.32;90.05
85176;SHT31;75548;42.444;27.488;2024-03-08T06:14:58;6.27;88.63
85176;SHT31;75548;42.444;27.488;2024-03-08T06:17:23;6.25;89.10
85176;SHT31;75548;42.444;27.488;2024-03-08T06:19:51;6.28;88.99
85176;SHT31;75548;42.444;27.488;2024-03-08T06:22:37;6.28;88.74
85176;SHT31;75548;42.444;27.488;2024-03-08T06:26:03;6.25;88.68
85176;SHT31;75548;42.444;27.488;2024-03-08T06:29:28;6.24;88.81
85176;SHT31;75548;42.444;27.488;2024-03-08T06:32:54;6.22;88.54
85176;SHT31;75548;42.444;27.488;2024-03-08T06:36:19;6.21;88.20
85176;SHT31;75548;42.444;27.488;2024-03-08T06:39:45;6.27;89.46
85176;SHT31;75548;42.444;27.488;2024-03-08T06:43:10;6.24;88.70
85176;SHT31;75548;42.444;27.488;2024-03-08T06:46:35;6.27;89.42
85176;SHT31;75548;42.444;27.488;2024-03-08T06:50:01;6.22;88.20
85176;SHT31;75548;42.444;27.488;2024-03-08T06:53:26;6.28;89.12
85176;SHT31;75548;42.444;27.488;2024-03-08T06:56:52;6.22;88.77
85176;SHT31;75548;42.444;27.488;2024-03-08T07:00:17;6.22;89.25
85176;SHT31;75548;42.444;27.488;2024-03-08T07:03:42;6.25;89.46
85176;SHT31;75548;42.444;27.488;2024-03-08T07:07:08;6.24;88.88
85176;SHT31;75548;42.444;27.488;2024-03-08T07:10:33;6.16;88.32
85176;SHT31;75548;42.444;27.488;2024-03-08T07:13:39;6.18;89.17
85176;SHT31;75548;42.444;27.488;2024-03-08T07:16:05;6.20;89.28
85176;SHT31;75548;42.444;27.488;2024-03-08T07:18:53;6.22;89.37
85176;SHT31;75548;42.444;27.488;2024-03-08T07:22:18;6.21;89.02
85176;SHT31;75548;42.444;27.488;2024-03-08T07:25:43;6.20;89.13
85176;SHT31;75548;42.444;27.488;2024-03-08T07:29:09;6.18;88.70
85176;SHT31;75548;42.444;27.488;2024-03-08T07:32:34;6.21;89.59
85176;SHT31;75548;42.444;27.488;2024-03-08T07:47:26;6.21;90.42
85176;SHT31;75548;42.444;27.488;2024-03-08T07:50:51;6.29;90.45
85176;SHT31;75548;42.444;27.488;2024-03-08T07:54:17;6.35;90.56
85176;SHT31;75548;42.444;27.488;2024-03-08T07:57:42;6.25;90.56
85176;SHT31;75548;42.444;27.488;2024-03-08T08:01:07;6.29;91.40
85176;SHT31;75548;42.444;27.488;2024-03-08T08:04:33;6.32;91.30
85176;SHT31;75548;42.444;27.488;2024-03-08T08:07:58;6.28;91.46
85176;SHT31;75548;42.444;27.488;2024-03-08T08:11:25;6.21;91.11
85176;SHT31;75548;42.444;27.488;2024-03-08T08:14:49;6.22;90.99
85176;SHT31;75548;42.444;27.488;2024-03-08T08:18:14;6.22;91.49
85176;SHT31;75548;42.444;27.488;2024-03-08T08:21:40;6.14;91.04
85176;SHT31;75548;42.444;27.488;2024-03-08T08:37:40;6.20;90.86
85176;SHT31;75548;42.444;27.488;2024-03-08T08:41:05;6.27;91.41
85176;SHT31;75548;42.444;27.488;2024-03-08T08:44:31;6.34;91.82
85176;SHT31;75548;42.444;27.488;2024-03-08T08:47:56;6.27;91.12
85176;SHT31;75548;42.444;27.488;2024-03-08T08:51:22;6.32;91.80
85176;SHT31;75548;42.444;27.488;2024-03-08T08:54:47;6.29;90.93
85176;SHT31;75548;42.444;27.488;2024-03-08T08:58:12;6.37;91.27
85176;SHT31;75548;42.444;27.488;2024-03-08T09:01:38;6.37;90.48
85176;SHT31;75548;42.444;27.488;2024-03-08T09:05:03;6.41;90.76
85176;SHT31;75548;42.444;27.488;2024-03-08T09:08:29;6.45;90.96
85176;SHT31;75548;42.444;27.488;2024-03-08T09:11:54;6.50;90.98
85176;SHT31;75548;42.444;27.488;2024-03-08T09:14:59;6.39;89.96
85176;SHT31;75548;42.444;27.488;2024-03-08T09:17:25;6.44;90.03
85176;SHT31;75548;42.444;27.488;2024-03-08T09:19:51;6.42;89.68
85176;SHT31;75548;42.444;27.488;2024-03-08T09:22:16;6.45;90.30
85176;SHT31;75548;42.444;27.488;2024-03-08T09:24:43;6.42;89.75
85176;SHT31;75548;42.444;27.488;2024-03-08T09:27:29;6.39;90.17
85176;SHT31;75548;42.444;27.488;2024-03-08T09:30:55;6.37;89.63
85176;SHT31;75548;42.444;27.488;2024-03-08T09:34:20;6.39;90.24
85176;SHT31;75548;42.444;27.488;2024-03-08T09:37:45;6.46;91.02
85176;SHT31;75548;42.444;27.488;2024-03-08T09:40:51;6.48;91.06
85176;SHT31;75548;42.444;27.488;2024-03-08T09:43:18;6.59;91.24
85176;SHT31;75548;42.444;27.488;2024-03-08T09:45:45;6.52;90.26
85176;SHT31;75548;42.444;27.488;2024-03-08T09:48:12;6.61;90.51
85176;SHT31;75548;42.444;27.488;2024-03-08T09:50:39;6.56;90.32
85176;SHT31;75548;42.444;27.488;2024-03-08T09:53:04;6.53;89.99
85176;SHT31;75548;42.444;27.488;2024-03-08T09:55:37;6.55;90.35
85176;SHT31;75548;42.444;27.488;2024-03-08T09:58:05;6.58;90.12
85176;SHT31;75548;42.444;27.488;2024-03-08T10:00:47;6.65;90.40
85176;SHT31;75548;42.444;27.488;2024-03-08T10:03:32;6.69;90.77
85176;SHT31;75548;42.444;27.488;2024-03-08T10:06:58;6.75;90.91
85176;SHT31;75548;42.444;27.488;2024-03-08T10:10:23;6.66;89.63
85176;SHT31;75548;42.444;27.488;2024-03-08T10:13:49;6.69;90.58
85176;SHT31;75548;42.444;27.488;2024-03-08T10:17:14;6.69;90.13
85176;SHT31;75548;42.444;27.488;2024-03-08T10:20:39;6.79;90.78
85176;SHT31;75548;42.444;27.488;2024-03-08T10:24:05;6.77;90.27
85176;SHT31;75548;42.444;27.488;2024-03-08T10:27:30;6.82;89.23
85176;SHT31;75548;42.444;27.488;2024-03-08T10:30:35;6.85;90.44
85176;SHT31;75548;42.444;27.488;2024-03-08T10:33:01;6.93;90.57
85176;SHT31;75548;42.444;27.488;2024-03-08T10:35:30;6.90;89.76
85176;SHT31;75548;42.444;27.488;2024-03-08T10:37:57;6.92;89.72
85176;SHT31;75548;42.444;27.488;2024-03-08T10:40:25;7.06;90.66
85176;SHT31;75548;42.444;27.488;2024-03-08T10:45:38;7.08;89.42
85176;SHT31;75548;42.444;27.488;2024-03-08T10:48:31;7.03;89.37
85176;SHT31;75548;42.444;27.488;2024-03-08T10:50:58;6.97;89.35
85176;SHT31;75548;42.444;27.488;2024-03-08T10:53:27;7.07;90.15
85176;SHT31;75548;42.444;27.488;2024-03-08T10:55:53;7.10;89.51
85176;SHT31;75548;42.444;27.488;2024-03-08T10:58:23;7.07;89.43
85176;SHT31;75548;42.444;27.488;2024-03-08T11:00:55;7.06;88.76
85176;SHT31;75548;42.444;27.488;2024-03-08T11:06:17;6.95;87.79
85176;SHT31;75548;42.444;27.488;2024-03-08T11:08:44;6.99;89.68
85176;SHT31;75548;42.444;27.488;2024-03-08T11:11:32;6.95;88.01
85176;SHT31;75548;42.444;27.488;2024-03-08T11:17:49;7.07;88.80
85176;SHT31;75548;42.444;27.488;2024-03-08T11:21:14;7.03;87.59
85176;SHT31;75548;42.444;27.488;2024-03-08T11:24:40;7.01;86.70
85176;SHT31;75548;42.444;27.488;2024-03-08T11:28:10;7.06;87.70
85176;SHT31;75548;42.444;27.488;2024-03-08T11:31:36;7.08;87.89
85176;SHT31;75548;42.444;27.488;2024-03-08T11:35:01;7.11;87.95
85176;SHT31;75548;42.444;27.488;2024-03-08T11:38:27;7.03;87.23
85176;SHT31;75548;42.444;27.488;2024-03-08T11:41:52;7.04;88.16
85176;SHT31;75548;42.444;27.488;2024-03-08T11:45:18;7.06;88.30
85176;SHT31;75548;42.444;27.488;2024-03-08T11:48:43;7.07;87.50
85176;SHT31;75548;42.444;27.488;2024-03-08T11:52:10;7.01;87.91
85176;SHT31;75548;42.444;27.488;2024-03-08T11:55:34;7.04;87.97
85176;SHT31;75548;42.444;27.488;2024-03-08T11:58:59;7.10;87.78
85176;SHT31;75548;42.444;27.488;2024-03-08T12:02:25;6.99;87.25
85176;SHT31;75548;42.444;27.488;2024-03-08T12:05:56;6.92;87.25
85176;SHT31;75548;42.444;27.488;2024-03-08T12:09:15;6.93;87.84
85176;SHT31;75548;42.444;27.488;2024-03-08T12:12:41;6.95;87.95
85176;SHT31;75548;42.444;27.488;2024-03-08T12:16:06;6.90;87.36
85176;SHT31;75548;42.444;27.488;2024-03-08T12:19:32;6.87;87.17
85176;SHT31;75548;42.444;27.488;2024-03-08T12:22:57;6.99;88.15
85176;SHT31;75548;42.444;27.488;2024-03-08T12:26:28;6.99;88.15
85176;SHT31;75548;42.444;27.488;2024-03-08T12:29:54;6.93;87.27
85176;SHT31;75548;42.444;27.488;2024-03-08T12:33:19;6.92;87.60
85176;SHT31;75548;42.444;27.488;2024-03-08T12:36:47;6.95;88.02
85176;SHT31;75548;42.444;27.488;2024-03-08T12:40:12;6.89;87.27
85176;SHT31;75548;42.444;27.488;2024-03-08T12:43:38;6.82;87.66
85176;SHT31;75548;42.444;27.488;2024-03-08T12:47:03;6.82;87.93
85176;SHT31;75548;42.444;27.488;2024-03-08T12:50:29;6.85;87.83
85176;SHT31;75548;42.444;27.488;2024-03-08T13:06:09;6.83;88.91
85176;SHT31;75548;42.444;27.488;2024-03-08T13:09:34;6.79;88.25
85176;SHT31;75548;42.444;27.488;2024-03-08T13:12:59;6.80;88.85
85176;SHT31;75548;42.444;27.488;2024-03-08T13:16:25;6.79;88.55
85176;SHT31;75548;42.444;27.488;2024-03-08T13:19:53;6.85;88.73
85176;SHT31;75548;42.444;27.488;2024-03-08T13:23:19;6.83;87.94
85176;SHT31;75548;42.444;27.488;2024-03-08T13:26:47;6.79;87.43
85176;SHT31;75548;42.444;27.488;2024-03-08T13:30:12;6.86;88.58
85176;SHT31;75548;42.444;27.488;2024-03-08T13:33:38;6.86;87.51
85176;SHT31;75548;42.444;27.488;2024-03-08T13:37:03;6.82;85.55
85176;SHT31;75548;42.444;27.488;2024-03-08T13:40:29;6.92;85.89
85176;SHT31;75548;42.444;27.488;2024-03-08T13:43:54;6.89;86.85
85176;SHT31;75548;42.444;27.488;2024-03-08T13:47:20;6.83;84.91
85176;SHT31;75548;42.444;27.488;2024-03-08T14:03:42;6.92;85.66
85176;SHT31;75548;42.444;27.488;2024-03-08T14:07:08;6.90;86.44
85176;SHT31;75548;42.444;27.488;2024-03-08T14:10:33;6.93;85.98
85176;SHT31;75548;42.444;27.488;2024-03-08T14:14:04;6.89;85.33
85176;SHT31;75548;42.444;27.488;2024-03-08T14:17:30;6.87;85.48
85176;SHT31;75548;42.444;27.488;2024-03-08T14:20:55;6.83;84.95
85176;SHT31;75548;42.444;27.488;2024-03-08T14:24:27;6.86;84.45
85176;SHT31;75548;42.444;27.488;2024-03-08T14:27:52;6.87;85.90
85176;SHT31;75548;42.444;27.488;2024-03-08T14:31:17;6.82;85.39
85176;SHT31;75548;42.444;27.488;2024-03-08T14:34:43;6.79;85.51
85176;SHT31;75548;42.444;27.488;2024-03-08T14:38:08;6.85;83.94
85176;SHT31;75548;42.444;27.488;2024-03-08T14:41:33;6.85;85.57
85176;SHT31;75548;42.444;27.488;2024-03-08T14:44:59;6.87;85.56
85176;SHT31;75548;42.444;27.488;2024-03-08T14:48:24;6.87;85.78
85176;SHT31;75548;42.444;27.488;2024-03-08T14:51:50;6.87;85.10
85176;SHT31;75548;42.444;27.488;2024-03-08T14:55:18;6.83;84.13
85176;SHT31;75548;42.444;27.488;2024-03-08T14:58:41;6.85;85.39
85176;SHT31;75548;42.444;27.488;2024-03-08T15:02:06;6.86;84.28
85176;SHT31;75548;42.444;27.488;2024-03-08T15:05:32;6.89;84.39
85176;SHT31;75548;42.444;27.488;2024-03-08T15:08:57;6.92;84.52
85176;SHT31;75548;42.444;27.488;2024-03-08T15:12:22;6.89;84.42
85176;SHT31;75548;42.444;27.488;2024-03-08T15:15:48;6.93;85.34
85176;SHT31;75548;42.444;27.488;2024-03-08T15:19:13;6.85;84.66
85176;SHT31;75548;42.444;27.488;2024-03-08T15:22:38;6.79;83.05
85176;SHT31;75548;42.444;27.488;2024-03-08T15:26:04;6.80;84.37
85176;SHT31;75548;42.444;27.488;2024-03-08T15:29:29;6.85;84.48
85176;SHT31;75548;42.444;27.488;2024-03-08T15:32:55;6.85;84.70
85176;SHT31;75548;42.444;27.488;2024-03-08T15:36:20;6.82;84.05
85176;SHT31;75548;42.444;27.488;2024-03-08T15:39:45;6.79;83.29
85176;SHT31;75548;42.444;27.488;2024-03-08T15:45:56;6.79;82.60
85176;SHT31;75548;42.444;27.488;2024-03-08T15:49:22;6.82;83.77
85176;SHT31;75548;42.444;27.488;2024-03-08T15:52:47;6.76;83.41
85176;SHT31;75548;42.444;27.488;2024-03-08T15:56:12;6.77;83.32
85176;SHT31;75548;42.444;27.488;2024-03-08T15:59:38;6.77;84.79
85176;SHT31;75548;42.444;27.488;2024-03-08T16:03:03;6.77;84.42
85176;SHT31;75548;42.444;27.488;2024-03-08T16:06:29;6.73;83.34
85176;SHT31;75548;42.444;27.488;2024-03-08T16:09:54;6.72;84.38
85176;SHT31;75548;42.444;27.488;2024-03-08T16:13:20;6.73;84.02
85176;SHT31;75548;42.444;27.488;2024-03-08T16:16:45;6.71;84.03
85176;SHT31;75548;42.444;27.488;2024-03-08T16:20:10;6.69;83.66
85176;SHT31;75548;42.444;27.488;2024-03-08T16:23:36;6.69;84.32
85176;SHT31;75548;42.444;27.488;2024-03-08T16:27:01;6.69;84.85
85176;SHT31;75548;42.444;27.488;2024-03-08T16:30:27;6.73;84.18
85176;SHT31;75548;42.444;27.488;2024-03-08T16:33:55;6.69;83.94
85176;SHT31;75548;42.444;27.488;2024-03-08T16:37:20;6.66;84.41
85176;SHT31;75548;42.444;27.488;2024-03-08T16:40:26;6.66;84.32
85176;SHT31;75548;42.444;27.488;2024-03-08T16:43:13;6.66;83.98
85176;SHT31;75548;42.444;27.488;2024-03-08T16:46:38;6.66;84.35
85176;SHT31;75548;42.444;27.488;2024-03-08T16:50:04;6.59;83.94
85176;SHT31;75548;42.444;27.488;2024-03-08T16:53:29;6.58;83.59
85176;SHT31;75548;42.444;27.488;2024-03-08T16:56:54;6.64;84.51
85176;SHT31;75548;42.444;27.488;2024-03-08T17:00:20;6.56;83.43
85176;SHT31;75548;42.444;27.488;2024-03-08T17:03:45;6.56;83.49
85176;SHT31;75548;42.444;27.488;2024-03-08T17:07:10;6.59;84.03
85176;SHT31;75548;42.444;27.488;2024-03-08T17:10:36;6.64;84.78
85176;SHT31;75548;42.444;27.488;2024-03-08T17:14:01;6.58;83.50
85176;SHT31;75548;42.444;27.488;2024-03-08T17:17:27;6.61;84.68
85176;SHT31;75548;42.444;27.488;2024-03-08T17:20:52;6.61;84.30
85176;SHT31;75548;42.444;27.488;2024-03-08T17:24:18;6.56;84.00
85176;SHT31;75548;42.444;27.488;2024-03-08T17:27:46;6.56;84.54
85176;SHT31;75548;42.444;27.488;2024-03-08T17:31:11;6.56;83.52
85176;SHT31;75548;42.444;27.488;2024-03-08T17:34:37;6.55;84.05
85176;SHT31;75548;42.444;27.488;2024-03-08T17:38:02;6.53;83.57
85176;SHT31;75548;42.444;27.488;2024-03-08T17:41:28;6.55;84.20
85176;SHT31;75548;42.444;27.488;2024-03-08T17:44:53;6.52;83.64
85176;SHT31;75548;42.444;27.488;2024-03-08T17:48:19;6.52;82.62
85176;SHT31;75548;42.444;27.488;2024-03-08T17:51:44;6.53;83.53
85176;SHT31;75548;42.444;27.488;2024-03-08T17:55:10;6.53;83.37
85176;SHT31;75548;42.444;27.488;2024-03-08T17:58:35;6.53;83.18
85176;SHT31;75548;42.444;27.488;2024-03-08T18:02:00;6.52;83.06
85176;SHT31;75548;42.444;27.488;2024-03-08T18:05:26;6.55;82.73
85176;SHT31;75548;42.444;27.488;2024-03-08T18:08:51;6.55;83.43
85176;SHT31;75548;42.444;27.488;2024-03-08T18:12:16;6.52;83.06
85176;SHT31;75548;42.444;27.488;2024-03-08T18:15:42;6.50;83.21
85176;SHT31;75548;42.444;27.488;2024-03-08T18:19:07;6.49;82.37
85176;SHT31;75548;42.444;27.488;2024-03-08T18:22:33;6.50;82.42
85176;SHT31;75548;42.444;27.488;2024-03-08T18:25:58;6.52;82.66
85176;SHT31;75548;42.444;27.488;2024-03-08T18:29:23;6.48;82.24
85176;SHT31;75548;42.444;27.488;2024-03-08T18:32:49;6.49;81.35
85176;SHT31;75548;42.444;27.488;2024-03-08T18:36:14;6.50;82.22
85176;SHT31;75548;42.444;27.488;2024-03-08T18:39:40;6.49;82.49
85176;SHT31;75548;42.444;27.488;2024-03-08T18:43:05;6.48;82.00
85176;SHT31;75548;42.444;27.488;2024-03-08T18:46:31;6.48;81.87
85176;SHT31;75548;42.444;27.488;2024-03-08T18:49:56;6.48;82.04
85176;SHT31;75548;42.444;27.488;2024-03-08T18:53:21;6.49;81.92
85176;SHT31;75548;42.444;27.488;2024-03-08T18:56:47;6.44;81.57
85176;SHT31;75548;42.444;27.488;2024-03-08T19:00:19;6.42;82.05
85176;SHT31;75548;42.444;27.488;2024-03-08T19:03:43;6.41;81.50
85176;SHT31;75548;42.444;27.488;2024-03-08T19:07:09;6.38;81.74
85176;SHT31;75548;42.444;27.488;2024-03-08T19:10:35;6.41;82.34
85176;SHT31;75548;42.444;27.488;2024-03-08T19:14:00;6.42;82.10
85176;SHT31;75548;42.444;27.488;2024-03-08T19:17:25;6.39;80.92
85176;SHT31;75548;42.444;27.488;2024-03-08T19:20:51;6.46;80.43
85176;SHT31;75548;42.444;27.488;2024-03-08T19:24:16;6.42;81.17
85176;SHT31;75548;42.444;27.488;2024-03-08T19:27:41;6.48;80.95
85176;SHT31;75548;42.444;27.488;2024-03-08T19:31:07;6.46;80.72
85176;SHT31;75548;42.444;27.488;2024-03-08T19:34:32;6.38;80.58
85176;SHT31;75548;42.444;27.488;2024-03-08T19:37:58;6.39;80.88
85176;SHT31;75548;42.444;27.488;2024-03-08T19:41:23;6.46;79.93
85176;SHT31;75548;42.444;27.488;2024-03-08T19:44:48;6.45;79.48
85176;SHT31;75548;42.444;27.488;2024-03-08T19:47:44;6.39;79.99
85176;SHT31;75548;42.444;27.488;2024-03-08T19:50:30;6.42;79.78
85176;SHT31;75548;42.444;27.488;2024-03-08T19:53:55;6.38;79.53
85176;SHT31;75548;42.444;27.488;2024-03-08T19:57:20;6.45;79.24
85176;SHT31;75548;42.444;27.488;2024-03-08T20:00:46;6.39;79.80
85176;SHT31;75548;42.444;27.488;2024-03-08T20:04:11;6.42;79.09
85176;SHT31;75548;42.444;27.488;2024-03-08T20:07:36;6.35;78.36
85176;SHT31;75548;42.444;27.488;2024-03-08T20:11:02;6.38;77.56
85176;SHT31;75548;42.444;27.488;2024-03-08T20:14:27;6.31;79.03
85176;SHT31;75548;42.444;27.488;2024-03-08T20:17:53;6.32;77.62
85176;SHT31;75548;42.444;27.488;2024-03-08T20:21:18;6.29;77.90
85176;SHT31;75548;42.444;27.488;2024-03-08T20:24:43;6.28;78.88
85176;SHT31;75548;42.444;27.488;2024-03-08T20:28:09;6.22;79.39
85176;SHT31;75548;42.444;27.488;2024-03-08T20:31:34;6.27;78.21
85176;SHT31;75548;42.444;27.488;2024-03-08T20:35:00;6.22;78.43
85176;SHT31;75548;42.444;27.488;2024-03-08T20:38:25;6.21;79.03
85176;SHT31;75548;42.444;27.488;2024-03-08T20:41:51;6.18;79.19
85176;SHT31;75548;42.444;27.488;2024-03-08T20:45:16;6.18;79.01
85176;SHT31;75548;42.444;27.488;2024-03-08T20:48:41;6.17;79.44
85176;SHT31;75548;42.444;27.488;2024-03-08T20:52:07;6.14;79.08
85176;SHT31;75548;42.444;27.488;2024-03-08T20:55:35;6.18;78.91
85176;SHT31;75548;42.444;27.488;2024-03-08T20:58:58;6.17;77.97
85176;SHT31;75548;42.444;27.488;2024-03-08T21:02:23;6.17;78.15
85176;SHT31;75548;42.444;27.488;2024-03-08T21:05:48;6.11;78.41
85176;SHT31;75548;42.444;27.488;2024-03-08T21:09:14;6.18;77.67